Kezdőlap
METAR-TAF:

METAR-TAF

Repülőterek :

Sallisaw, Oklahoma, Amerikai Egyesült Államok

földrajzi szélesség: 35-26-17N, földrajzi hosszúság: 094-48-10W, magasság: 161 m

Jelenlegi meteorológiai megfigyelések

A jelentés 37 perccel ezelõtt készült, 19:35 UTC
Különbözõ irányokból fújó szél 6 kt
Hőmérséklet 33°C
Páratartalom 49%
Légköri nyomás 1013 hPa
Látótávolság: 16.1 km
Derült ég

METAR: KJSV 151935Z AUTO VRB06KT 10SM CLR 33/21 A2990 RMK AO2

Idő: 15:12 (20:12 UTC)


TAF: hiányzik

Meteorológiai megfigyelések és előrejelzések több, mint 4000 repülőtéren (METAR és TAF jelentéseket).

A térképen piros és sárga pontok jelzik az elérhető meteorológiai állomásokat.

Mozgassa az egeret a pont fölött, hogy megjelenjen az állomás neve.

Azután kattintson az időjárási megfigyelések és előrejelzések megtekintéséhez.

A térkép megváltoztatása: kattintson a fekete keresztel jelölt zöld gombra ráközelítéshez, a vonallal jelölt zöld gombra távolításhoz, vagy a zöld nyilakra a szomszédos térképek eléréséhez.


METAR-TAF: